createdAt,value
2023-09-06T00:00:50.414Z,19.14
2023-09-06T00:03:18.325Z,19.18
2023-09-06T00:05:45.584Z,19.14
2023-09-06T00:08:15.873Z,19.06
2023-09-06T00:10:46.036Z,19.03
2023-09-06T00:13:14.383Z,19.02
2023-09-06T00:15:41.544Z,19.01
2023-09-06T00:18:08.566Z,18.95
2023-09-06T00:20:39.474Z,18.88
2023-09-06T00:23:10.471Z,18.88
2023-09-06T00:25:38.891Z,18.79
2023-09-06T00:28:07.815Z,18.76
2023-09-06T00:30:35.226Z,18.80
2023-09-06T00:33:07.436Z,18.78
2023-09-06T00:35:34.771Z,18.77
2023-09-06T00:38:05.976Z,18.74
2023-09-06T00:40:37.419Z,18.76
2023-09-06T00:43:06.993Z,18.74
2023-09-06T00:45:45.601Z,18.72
2023-09-06T00:48:18.859Z,18.54
2023-09-06T00:50:45.923Z,18.52
2023-09-06T00:53:14.413Z,18.52
2023-09-06T00:55:42.416Z,18.49
2023-09-06T00:58:10.275Z,18.48
2023-09-06T01:00:37.362Z,18.39
2023-09-06T01:03:07.454Z,18.36
2023-09-06T01:06:09.760Z,18.33
2023-09-06T01:08:59.334Z,18.31
2023-09-06T01:11:28.859Z,18.23
2023-09-06T01:13:59.821Z,18.15
2023-09-06T01:16:47.030Z,18.18
2023-09-06T01:19:19.226Z,18.10
2023-09-06T01:22:10.086Z,18.08
2023-09-06T01:24:38.035Z,18.09
2023-09-06T01:27:09.090Z,18.07
2023-09-06T01:29:36.201Z,18.03
2023-09-06T01:32:04.925Z,17.96
2023-09-06T01:34:32.242Z,17.91
2023-09-06T01:36:59.242Z,17.92
2023-09-06T01:39:26.180Z,17.90
2023-09-06T01:41:53.024Z,17.79
2023-09-06T01:44:19.942Z,17.75
2023-09-06T01:46:47.162Z,17.66
2023-09-06T01:49:14.325Z,17.62
2023-09-06T01:51:41.302Z,17.53
2023-09-06T01:54:10.200Z,17.41
2023-09-06T01:56:37.178Z,17.49
2023-09-06T01:59:04.387Z,17.46
2023-09-06T02:01:32.050Z,17.44
2023-09-06T02:04:00.492Z,17.44
2023-09-06T02:06:27.488Z,17.44
2023-09-06T02:08:54.459Z,17.31
2023-09-06T02:11:22.158Z,17.29
2023-09-06T02:13:49.077Z,17.21
2023-09-06T02:16:18.389Z,17.23
2023-09-06T02:18:45.322Z,17.19
2023-09-06T02:21:12.242Z,17.22
2023-09-06T02:23:39.129Z,17.19
2023-09-06T02:26:06.066Z,17.17
2023-09-06T02:28:33.204Z,17.11
2023-09-06T02:31:01.107Z,17.07
2023-09-06T02:33:29.682Z,17.08
2023-09-06T02:35:56.774Z,17.07
2023-09-06T02:38:23.754Z,17.05
2023-09-06T02:40:51.498Z,17.07
2023-09-06T02:43:18.410Z,17.06
2023-09-06T02:45:51.138Z,17.04
2023-09-06T02:48:19.847Z,17.00
2023-09-06T02:50:46.934Z,16.94
2023-09-06T02:53:21.475Z,16.98
2023-09-06T02:55:52.805Z,16.95
2023-09-06T02:58:25.396Z,16.93
2023-09-06T03:01:00.019Z,16.92
2023-09-06T03:03:31.788Z,16.87
2023-09-06T03:06:05.759Z,16.86
2023-09-06T03:08:33.686Z,16.85
2023-09-06T03:11:00.821Z,16.80
2023-09-06T03:13:27.739Z,16.81
2023-09-06T03:15:54.818Z,16.83
2023-09-06T03:18:23.514Z,16.81
2023-09-06T03:20:50.788Z,16.81
2023-09-06T03:23:20.941Z,16.81
2023-09-06T03:25:56.979Z,16.82
2023-09-06T03:28:27.248Z,16.80
2023-09-06T03:30:54.654Z,16.78
2023-09-06T03:33:21.570Z,16.77
2023-09-06T03:35:50.290Z,16.73
2023-09-06T03:38:18.761Z,16.74
2023-09-06T03:40:46.554Z,16.68
2023-09-06T03:43:16.770Z,16.63
2023-09-06T03:45:46.029Z,16.55
2023-09-06T03:48:18.894Z,16.51
2023-09-06T03:50:47.351Z,16.47
2023-09-06T03:53:15.850Z,16.46
2023-09-06T03:55:43.131Z,16.43
2023-09-06T03:58:12.106Z,16.43
2023-09-06T04:00:43.195Z,16.42
2023-09-06T04:03:13.202Z,16.42
2023-09-06T04:05:42.108Z,16.36
2023-09-06T04:08:10.461Z,16.31
2023-09-06T04:10:37.890Z,16.22
2023-09-06T04:13:10.872Z,16.16
2023-09-06T04:15:38.689Z,16.07
2023-09-06T04:18:12.865Z,15.98
2023-09-06T04:20:45.989Z,15.93
2023-09-06T04:23:17.426Z,15.85
2023-09-06T04:25:47.472Z,15.81
2023-09-06T04:28:17.024Z,15.84
2023-09-06T04:30:47.327Z,15.87
2023-09-06T04:33:15.514Z,15.86
2023-09-06T04:35:46.127Z,15.84
2023-09-06T04:38:15.767Z,15.74
2023-09-06T04:40:47.347Z,15.72
2023-09-06T04:43:18.039Z,15.76
2023-09-06T04:45:45.873Z,15.75
2023-09-06T04:48:17.854Z,15.77
2023-09-06T04:50:46.578Z,15.81
2023-09-06T04:53:14.318Z,15.88
2023-09-06T04:55:41.577Z,15.94
2023-09-06T04:58:10.210Z,15.99
2023-09-06T05:00:42.594Z,16.09
2023-09-06T05:03:12.405Z,16.20
2023-09-06T05:05:41.869Z,16.25
2023-09-06T05:08:09.565Z,16.28
2023-09-06T05:10:36.850Z,16.38
2023-09-06T05:13:08.789Z,16.55
2023-09-06T05:15:37.149Z,16.65
2023-09-06T05:18:06.366Z,16.74
2023-09-06T05:20:39.406Z,16.90
2023-09-06T05:23:14.935Z,16.97
2023-09-06T05:25:43.662Z,17.12
2023-09-06T05:28:13.622Z,17.20
2023-09-06T05:30:42.354Z,17.35
2023-09-06T05:33:09.888Z,17.50
2023-09-06T05:35:37.774Z,17.55
2023-09-06T05:38:05.116Z,17.70
2023-09-06T05:40:34.438Z,17.75
2023-09-06T05:43:01.845Z,17.89
2023-09-06T05:45:29.024Z,18.10
2023-09-06T05:47:56.012Z,18.19
2023-09-06T05:50:23.019Z,18.42
2023-09-06T05:52:50.200Z,18.61
2023-09-06T05:55:17.134Z,18.76
2023-09-06T05:57:44.255Z,19.03
2023-09-06T06:00:16.866Z,19.20
2023-09-06T06:02:46.467Z,19.50
2023-09-06T06:05:15.006Z,19.67
2023-09-06T06:07:42.646Z,19.90
2023-09-06T06:10:12.745Z,20.16
2023-09-06T06:12:40.716Z,20.42
2023-09-06T06:15:10.213Z,20.75
2023-09-06T06:17:37.402Z,21.09
2023-09-06T06:20:08.021Z,21.28
2023-09-06T06:22:44.859Z,21.42
2023-09-06T06:25:12.922Z,21.83
2023-09-06T06:27:40.706Z,21.93
2023-09-06T06:30:08.894Z,21.97
2023-09-06T06:32:37.135Z,21.55
2023-09-06T06:35:07.582Z,22.04
2023-09-06T06:37:35.612Z,21.86
2023-09-06T06:40:02.664Z,22.12
2023-09-06T06:42:29.622Z,22.17
2023-09-06T06:44:56.609Z,22.26
2023-09-06T06:47:23.590Z,21.99
2023-09-06T06:49:58.768Z,22.23
2023-09-06T06:52:25.723Z,22.34
2023-09-06T06:54:52.611Z,22.32
2023-09-06T06:57:19.470Z,22.81
2023-09-06T06:59:46.609Z,22.76
2023-09-06T07:02:14.402Z,23.03
2023-09-06T07:04:41.388Z,23.13
2023-09-06T07:07:08.836Z,23.14
2023-09-06T07:09:35.853Z,23.14
2023-09-06T07:12:02.788Z,23.24
2023-09-06T07:14:29.740Z,22.92
2023-09-06T07:16:57.112Z,22.78
2023-09-06T07:19:24.193Z,23.40
2023-09-06T07:21:51.088Z,23.25
2023-09-06T07:24:18.024Z,22.88
2023-09-06T07:26:44.920Z,23.18
2023-09-06T07:29:11.995Z,23.23
2023-09-06T07:31:40.390Z,23.65
2023-09-06T07:34:08.444Z,23.79
2023-09-06T07:36:35.573Z,24.43
2023-09-06T07:39:02.586Z,24.60
2023-09-06T07:41:29.547Z,24.27
2023-09-06T07:43:56.654Z,24.35
2023-09-06T07:46:29.304Z,24.59
2023-09-06T07:48:56.507Z,24.74
2023-09-06T07:51:24.850Z,24.82
2023-09-06T07:53:51.841Z,24.77
2023-09-06T07:56:18.964Z,24.34
2023-09-06T07:58:45.876Z,25.01
2023-09-06T08:01:19.078Z,25.00
2023-09-06T08:03:48.036Z,25.23
2023-09-06T08:06:15.921Z,25.50
2023-09-06T08:08:43.233Z,25.73
2023-09-06T08:11:11.056Z,25.98
2023-09-06T08:13:42.880Z,26.16
2023-09-06T08:16:13.193Z,25.76
2023-09-06T08:18:40.748Z,26.19
2023-09-06T08:21:09.062Z,25.98
2023-09-06T08:23:36.014Z,26.44
2023-09-06T08:26:02.981Z,26.78
2023-09-06T08:28:30.360Z,26.71
2023-09-06T08:30:58.710Z,27.22
2023-09-06T08:33:25.908Z,27.44
2023-09-06T08:35:52.992Z,27.25
2023-09-06T08:38:19.906Z,27.11
2023-09-06T08:40:46.788Z,27.39
2023-09-06T08:43:15.844Z,27.63
2023-09-06T08:45:45.130Z,28.09
2023-09-06T08:48:12.979Z,27.39
2023-09-06T08:50:40.686Z,27.61
2023-09-06T08:53:11.802Z,27.83
2023-09-06T08:55:38.927Z,27.80
2023-09-06T08:58:06.743Z,27.94
2023-09-06T09:00:37.792Z,28.10
2023-09-06T09:03:05.171Z,27.82
2023-09-06T09:05:32.145Z,27.45
2023-09-06T09:08:01.436Z,27.51
2023-09-06T09:10:33.298Z,26.93
2023-09-06T09:13:01.718Z,27.21
2023-09-06T09:15:33.213Z,26.86
2023-09-06T09:18:10.675Z,27.33
2023-09-06T09:20:44.621Z,27.55
2023-09-06T09:23:17.971Z,27.35
2023-09-06T09:25:50.384Z,26.67
2023-09-06T09:28:18.006Z,27.37
2023-09-06T09:30:50.048Z,27.97
2023-09-06T09:33:17.451Z,27.92
2023-09-06T09:35:46.054Z,28.29
2023-09-06T09:38:13.333Z,28.69
2023-09-06T09:43:10.435Z,28.91
2023-09-06T09:45:44.807Z,29.20
2023-09-06T09:48:12.482Z,29.51
2023-09-06T09:50:42.450Z,29.74
2023-09-06T09:53:21.126Z,29.28
2023-09-06T09:55:51.355Z,29.18
2023-09-06T09:58:19.779Z,29.08
2023-09-06T10:00:51.451Z,29.73
2023-09-06T10:03:20.128Z,30.17
2023-09-06T10:05:48.857Z,29.69
2023-09-06T10:08:19.206Z,30.16
2023-09-06T10:10:46.629Z,30.21
2023-09-06T10:13:16.309Z,29.74
2023-09-06T10:15:45.136Z,30.34
2023-09-06T10:18:12.892Z,30.43
2023-09-06T10:20:40.808Z,30.24
2023-09-06T10:23:09.102Z,30.62
2023-09-06T10:25:42.107Z,31.13
2023-09-06T10:28:09.660Z,30.49
2023-09-06T10:30:46.978Z,30.67
2023-09-06T10:33:43.126Z,30.98
2023-09-06T10:36:13.445Z,31.37
2023-09-06T10:38:53.225Z,30.90
2023-09-06T10:41:21.771Z,30.03
2023-09-06T10:44:04.378Z,30.48
2023-09-06T10:46:36.270Z,30.69
2023-09-06T10:49:30.858Z,31.37
2023-09-06T10:52:04.743Z,30.35
2023-09-06T10:54:45.062Z,30.01
2023-09-06T10:57:15.286Z,30.77
2023-09-06T10:59:57.132Z,30.22
2023-09-06T11:02:24.160Z,29.95
2023-09-06T11:05:12.505Z,30.14
2023-09-06T11:07:50.121Z,30.72
2023-09-06T11:10:26.349Z,30.37
2023-09-06T11:12:58.399Z,30.98
2023-09-06T11:15:25.772Z,31.52
2023-09-06T11:18:00.137Z,32.21
2023-09-06T11:20:27.512Z,31.61
2023-09-06T11:22:59.557Z,31.11
2023-09-06T11:25:30.362Z,32.19
2023-09-06T11:28:04.255Z,31.71
2023-09-06T11:30:33.617Z,31.29
2023-09-06T11:33:00.666Z,30.80
2023-09-06T11:35:38.628Z,32.07
2023-09-06T11:38:09.817Z,32.60
2023-09-06T11:40:36.901Z,32.92
2023-09-06T11:43:06.377Z,32.73
2023-09-06T11:45:34.289Z,33.62
2023-09-06T11:48:11.271Z,33.00
2023-09-06T11:50:43.909Z,32.72
2023-09-06T11:53:11.641Z,32.08
2023-09-06T11:55:44.232Z,32.78
2023-09-06T11:58:18.226Z,33.16
2023-09-06T12:00:51.794Z,33.73
2023-09-06T12:03:23.248Z,33.13
2023-09-06T12:05:54.661Z,33.02
2023-09-06T12:08:24.600Z,33.25
2023-09-06T12:11:06.992Z,33.16
2023-09-06T12:13:36.476Z,33.10
2023-09-06T12:16:06.063Z,33.53
2023-09-06T12:18:35.318Z,33.82
2023-09-06T12:21:06.435Z,34.49
2023-09-06T12:23:37.985Z,35.15
2023-09-06T12:26:06.451Z,35.47
2023-09-06T12:28:33.893Z,34.97
2023-09-06T12:31:15.262Z,35.94
2023-09-06T12:33:45.775Z,35.33
2023-09-06T12:36:13.806Z,35.69
2023-09-06T12:38:40.735Z,36.54
2023-09-06T12:41:07.890Z,36.48
2023-09-06T12:43:36.729Z,37.31
2023-09-06T12:46:13.325Z,38.33
2023-09-06T12:48:43.381Z,37.82
2023-09-06T12:51:11.281Z,37.89
2023-09-06T12:53:38.289Z,37.86
2023-09-06T12:56:05.457Z,35.97
2023-09-06T12:58:34.219Z,38.07
2023-09-06T13:01:04.525Z,39.34
2023-09-06T13:03:31.770Z,40.37
2023-09-06T13:06:02.844Z,40.41
2023-09-06T13:08:30.124Z,41.88
2023-09-06T13:10:57.343Z,39.95
2023-09-06T13:13:24.352Z,39.11
2023-09-06T13:15:51.334Z,38.82
2023-09-06T13:18:20.460Z,39.12
2023-09-06T13:20:47.802Z,39.19
2023-09-06T13:23:15.539Z,40.66
2023-09-06T13:25:42.454Z,41.04
2023-09-06T13:28:09.416Z,40.53
2023-09-06T13:30:36.487Z,40.93
2023-09-06T13:33:05.055Z,40.71
2023-09-06T13:35:32.594Z,40.77
2023-09-06T13:37:59.547Z,41.72
2023-09-06T13:40:27.282Z,42.12
2023-09-06T13:42:54.204Z,42.58
2023-09-06T13:45:21.249Z,43.66
2023-09-06T13:47:49.974Z,41.70
2023-09-06T13:50:17.004Z,41.52
2023-09-06T13:52:43.872Z,40.73
2023-09-06T13:55:13.287Z,40.88
2023-09-06T13:57:40.251Z,42.41
2023-09-06T14:00:12.510Z,43.20
2023-09-06T14:02:39.816Z,44.42
2023-09-06T14:05:07.458Z,45.64
2023-09-06T14:07:34.635Z,45.07
2023-09-06T14:10:01.654Z,44.43
2023-09-06T14:12:28.592Z,43.72
2023-09-06T14:14:57.755Z,43.58
2023-09-06T14:17:24.884Z,42.16
2023-09-06T14:19:52.060Z,43.34
2023-09-06T14:22:18.930Z,43.17
2023-09-06T14:24:46.050Z,44.12
2023-09-06T14:27:14.733Z,45.15
2023-09-06T14:29:42.141Z,45.15
2023-09-06T14:32:09.100Z,45.98
2023-09-06T14:34:36.085Z,46.00
2023-09-06T14:37:03.405Z,44.81
2023-09-06T14:39:30.636Z,44.42
2023-09-06T14:41:57.558Z,43.80
2023-09-06T14:44:24.512Z,42.88
2023-09-06T14:46:51.537Z,43.26
2023-09-06T14:49:18.526Z,43.63
2023-09-06T14:51:45.425Z,44.45
2023-09-06T14:54:12.377Z,44.55
2023-09-06T14:56:39.295Z,45.66
2023-09-06T14:59:08.063Z,46.34
2023-09-06T15:01:35.049Z,45.47
2023-09-06T15:04:02.150Z,45.92
2023-09-06T15:06:39.294Z,45.83
2023-09-06T15:09:16.354Z,45.32
2023-09-06T15:11:43.559Z,46.00
2023-09-06T15:14:11.353Z,46.41
2023-09-06T15:16:38.338Z,47.24
2023-09-06T15:19:05.384Z,46.75
2023-09-06T15:21:32.952Z,47.03
2023-09-06T15:24:00.160Z,46.50
2023-09-06T15:26:27.181Z,44.25
2023-09-06T15:28:54.073Z,41.77
2023-09-06T15:31:22.086Z,38.70
2023-09-06T15:33:49.574Z,36.48
2023-09-06T15:36:16.732Z,35.51
2023-09-06T15:38:43.731Z,34.27
2023-09-06T15:41:16.277Z,33.32
2023-09-06T15:43:43.218Z,32.63
2023-09-06T15:46:10.226Z,32.32
2023-09-06T15:48:38.259Z,31.76
2023-09-06T15:51:06.620Z,31.03
2023-09-06T15:53:33.632Z,30.53
2023-09-06T15:56:00.989Z,30.45
2023-09-06T15:58:28.445Z,30.48
2023-09-06T16:00:55.928Z,30.36
2023-09-06T16:03:23.174Z,30.32
2023-09-06T16:05:50.319Z,30.17
2023-09-06T16:08:17.320Z,29.96
2023-09-06T16:10:44.218Z,29.74
2023-09-06T16:13:11.132Z,29.89
2023-09-06T16:15:38.021Z,30.08
2023-09-06T16:18:05.840Z,30.22
2023-09-06T16:20:32.934Z,30.12
2023-09-06T16:23:00.339Z,29.78
2023-09-06T16:25:27.330Z,29.86
2023-09-06T16:27:54.295Z,29.67
2023-09-06T16:30:21.908Z,29.57
2023-09-06T16:32:50.138Z,29.43
2023-09-06T16:35:17.463Z,29.16
2023-09-06T16:37:49.673Z,29.03
2023-09-06T16:40:21.500Z,28.88
2023-09-06T16:42:49.205Z,28.74
2023-09-06T16:45:16.331Z,28.57
2023-09-06T16:47:43.325Z,28.50
2023-09-06T16:50:10.838Z,28.30
2023-09-06T16:52:38.594Z,28.05
2023-09-06T16:55:06.625Z,28.01
2023-09-06T16:57:33.534Z,27.95
2023-09-06T17:00:00.595Z,27.75
2023-09-06T17:02:27.655Z,27.58
2023-09-06T17:04:55.765Z,27.49
2023-09-06T17:07:22.661Z,27.41
2023-09-06T17:09:49.720Z,27.30
2023-09-06T17:12:16.674Z,27.28
2023-09-06T17:14:43.583Z,27.19
2023-09-06T17:17:10.695Z,27.06
2023-09-06T17:19:37.643Z,26.89
2023-09-06T17:22:04.723Z,26.80
2023-09-06T17:24:31.624Z,26.74
2023-09-06T17:26:58.589Z,26.66
2023-09-06T17:29:25.780Z,26.57
2023-09-06T17:31:54.887Z,26.42
2023-09-06T17:34:22.789Z,26.22
2023-09-06T17:36:49.868Z,26.13
2023-09-06T17:39:16.729Z,26.02
2023-09-06T17:41:43.612Z,25.94
2023-09-06T17:44:10.575Z,25.78
2023-09-06T17:46:37.497Z,25.59
2023-09-06T17:49:09.908Z,25.37
2023-09-06T17:51:37.830Z,25.14
2023-09-06T17:54:05.171Z,24.98
2023-09-06T17:56:33.235Z,24.88
2023-09-06T17:59:00.229Z,24.74
2023-09-06T18:01:27.534Z,24.71
2023-09-06T18:03:58.902Z,24.68
2023-09-06T18:06:28.076Z,24.55
2023-09-06T18:08:57.515Z,24.47
2023-09-06T18:11:25.341Z,24.36
2023-09-06T18:13:53.019Z,24.34
2023-09-06T18:16:21.382Z,24.28
2023-09-06T18:18:49.639Z,24.18
2023-09-06T18:21:18.040Z,24.04
2023-09-06T18:23:47.511Z,24.05
2023-09-06T18:26:14.913Z,24.03
2023-09-06T18:28:42.011Z,23.98
2023-09-06T18:31:09.534Z,23.98
2023-09-06T18:33:38.392Z,23.99
2023-09-06T18:36:09.826Z,23.93
2023-09-06T18:38:38.144Z,23.91
2023-09-06T18:41:10.521Z,23.83
2023-09-06T18:43:39.896Z,23.85
2023-09-06T18:46:07.962Z,23.87
2023-09-06T18:48:36.622Z,23.72
2023-09-06T18:51:08.391Z,23.63
2023-09-06T18:53:37.059Z,23.59
2023-09-06T18:56:05.219Z,23.57
2023-09-06T18:58:34.296Z,23.45
2023-09-06T19:01:01.695Z,23.42
2023-09-06T19:03:29.066Z,23.43
2023-09-06T19:05:56.062Z,23.33
2023-09-06T19:08:23.254Z,23.22
2023-09-06T19:10:50.237Z,23.22
2023-09-06T19:13:17.360Z,23.08
2023-09-06T19:15:48.660Z,23.09
2023-09-06T19:18:17.293Z,23.10
2023-09-06T19:20:44.506Z,23.08
2023-09-06T19:23:17.676Z,23.03
2023-09-06T19:25:55.184Z,22.99
2023-09-06T19:28:23.756Z,22.95
2023-09-06T19:30:57.718Z,22.99
2023-09-06T19:33:28.912Z,22.93
2023-09-06T19:35:56.597Z,22.88
2023-09-06T19:38:24.050Z,22.82
2023-09-06T19:40:53.232Z,22.78
2023-09-06T19:43:21.056Z,22.86
2023-09-06T19:45:57.013Z,22.77
2023-09-06T19:48:24.746Z,22.73
2023-09-06T19:50:52.855Z,22.68
2023-09-06T19:53:20.659Z,22.69
2023-09-06T19:55:49.567Z,22.69
2023-09-06T19:58:16.954Z,22.67
2023-09-06T20:00:44.208Z,22.61
2023-09-06T20:03:11.457Z,22.60
2023-09-06T20:05:38.637Z,22.62
2023-09-06T20:08:06.050Z,22.67
2023-09-06T20:10:32.961Z,22.62
2023-09-06T20:12:59.977Z,22.55
2023-09-06T20:15:26.864Z,22.43
2023-09-06T20:17:56.106Z,22.43
2023-09-06T20:20:23.269Z,22.40
2023-09-06T20:22:50.202Z,22.37
2023-09-06T20:25:17.121Z,22.39
2023-09-06T20:27:44.135Z,22.30
2023-09-06T20:30:11.750Z,22.31
2023-09-06T20:32:38.941Z,22.36
2023-09-06T20:35:06.201Z,22.33
2023-09-06T20:37:33.144Z,22.39
2023-09-06T20:40:00.150Z,22.46
2023-09-06T20:42:27.455Z,22.47
2023-09-06T20:44:54.360Z,22.43
2023-09-06T20:47:21.349Z,22.39
2023-09-06T20:49:48.775Z,22.34
2023-09-06T20:52:15.917Z,22.31
2023-09-06T20:54:43.109Z,22.27
2023-09-06T20:57:10.047Z,22.16
2023-09-06T20:59:36.901Z,22.05
2023-09-06T21:02:03.978Z,22.00
2023-09-06T21:04:31.038Z,21.91
2023-09-06T21:06:58.001Z,21.96
2023-09-06T21:09:25.042Z,21.96
2023-09-06T21:11:51.971Z,21.97
2023-09-06T21:14:20.201Z,21.99
2023-09-06T21:16:47.587Z,21.95
2023-09-06T21:19:14.498Z,21.93
2023-09-06T21:21:41.397Z,21.96
2023-09-06T21:24:09.779Z,21.77
2023-09-06T21:26:39.962Z,21.68
2023-09-06T21:29:18.146Z,21.62
2023-09-06T21:31:49.161Z,21.45
2023-09-06T21:34:16.474Z,21.25
2023-09-06T21:36:43.609Z,21.10
2023-09-06T21:39:10.925Z,20.96
2023-09-06T21:41:37.781Z,20.86
2023-09-06T21:44:04.976Z,20.93
2023-09-06T21:46:31.913Z,20.91
2023-09-06T21:48:58.798Z,20.99
2023-09-06T21:51:25.684Z,21.09
2023-09-06T21:53:52.549Z,21.09
2023-09-06T21:56:20.471Z,21.20
2023-09-06T21:58:47.812Z,21.07
2023-09-06T22:01:14.779Z,21.30
2023-09-06T22:03:41.843Z,21.33
2023-09-06T22:06:08.851Z,21.35
2023-09-06T22:08:35.760Z,21.41
2023-09-06T22:11:02.732Z,21.43
2023-09-06T22:13:29.818Z,21.37
2023-09-06T22:15:56.811Z,21.53
2023-09-06T22:18:23.777Z,21.71
2023-09-06T22:20:50.619Z,21.64
2023-09-06T22:23:18.295Z,21.85
2023-09-06T22:25:45.406Z,21.87
2023-09-06T22:28:13.093Z,21.74
2023-09-06T22:30:44.018Z,21.85
2023-09-06T22:33:11.022Z,21.92
2023-09-06T22:35:37.991Z,21.94
2023-09-06T22:38:04.875Z,21.94
2023-09-06T22:40:31.853Z,21.94
2023-09-06T22:42:58.806Z,21.96
2023-09-06T22:45:25.755Z,21.85
2023-09-06T22:47:52.787Z,21.92
2023-09-06T22:50:19.780Z,22.02
2023-09-06T22:52:46.771Z,21.99
2023-09-06T22:55:13.880Z,22.02
2023-09-06T22:57:40.808Z,21.98
2023-09-06T23:00:08.907Z,21.95
2023-09-06T23:02:36.057Z,21.91
2023-09-06T23:05:03.401Z,21.90
2023-09-06T23:07:30.380Z,21.91
2023-09-06T23:09:57.769Z,21.85
2023-09-06T23:12:24.967Z,21.76
2023-09-06T23:14:52.932Z,21.86
2023-09-06T23:17:24.047Z,21.91
2023-09-06T23:19:55.638Z,21.93
2023-09-06T23:22:24.831Z,21.79
2023-09-06T23:24:57.329Z,21.73
2023-09-06T23:27:26.351Z,21.80
2023-09-06T23:29:58.462Z,21.92
2023-09-06T23:32:27.825Z,21.89
2023-09-06T23:34:55.372Z,21.84
2023-09-06T23:37:23.173Z,21.71
2023-09-06T23:39:50.974Z,21.93
2023-09-06T23:42:20.521Z,21.77
2023-09-06T23:44:47.613Z,21.79
2023-09-06T23:47:15.157Z,21.80
2023-09-06T23:49:46.295Z,21.78
2023-09-06T23:52:14.178Z,21.61
2023-09-06T23:54:48.210Z,21.54
2023-09-06T23:57:18.529Z,21.81
2023-09-06T23:59:45.829Z,21.75
